createdAt,value
2022-08-27T00:00:47.412Z,24.45
2022-08-27T00:03:15.093Z,24.49
2022-08-27T00:05:42.519Z,24.48
2022-08-27T00:08:12.500Z,24.40
2022-08-27T00:10:40.829Z,24.33
2022-08-27T00:13:08.356Z,24.45
2022-08-27T00:15:35.986Z,24.24
2022-08-27T00:18:04.348Z,24.17
2022-08-27T00:20:31.826Z,24.40
2022-08-27T00:22:59.303Z,24.51
2022-08-27T00:25:27.387Z,24.42
2022-08-27T00:27:54.769Z,24.45
2022-08-27T00:30:22.664Z,24.62
2022-08-27T00:32:50.421Z,24.39
2022-08-27T00:35:18.699Z,24.36
2022-08-27T00:37:46.142Z,24.22
2022-08-27T00:40:16.681Z,24.12
2022-08-27T00:42:46.002Z,24.12
2022-08-27T00:45:15.396Z,24.10
2022-08-27T00:47:45.585Z,23.91
2022-08-27T00:50:18.048Z,24.37
2022-08-27T00:52:51.228Z,24.16
2022-08-27T00:55:21.728Z,23.68
2022-08-27T00:58:14.015Z,24.02
2022-08-27T01:00:42.425Z,24.22
2022-08-27T01:03:10.147Z,24.25
2022-08-27T01:05:38.291Z,24.33
2022-08-27T01:08:14.230Z,24.20
2022-08-27T01:10:42.052Z,24.05
2022-08-27T01:13:10.580Z,23.57
2022-08-27T01:15:38.543Z,23.74
2022-08-27T01:18:06.242Z,23.86
2022-08-27T01:20:51.736Z,23.74
2022-08-27T01:23:22.303Z,23.81
2022-08-27T01:25:50.098Z,23.72
2022-08-27T01:28:17.583Z,23.82
2022-08-27T01:30:51.557Z,23.76
2022-08-27T01:33:20.688Z,23.82
2022-08-27T01:35:49.116Z,23.62
2022-08-27T01:38:30.443Z,23.57
2022-08-27T01:40:59.480Z,23.64
2022-08-27T01:43:28.876Z,23.55
2022-08-27T01:45:56.272Z,23.57
2022-08-27T01:48:23.689Z,23.64
2022-08-27T01:50:51.416Z,23.00
2022-08-27T01:53:23.045Z,22.94
2022-08-27T01:55:51.778Z,23.33
2022-08-27T01:58:20.871Z,23.04
2022-08-27T02:00:51.998Z,23.16
2022-08-27T02:03:24.242Z,22.66
2022-08-27T02:05:51.698Z,22.98
2022-08-27T02:08:19.282Z,23.03
2022-08-27T02:10:47.665Z,23.05
2022-08-27T02:13:15.274Z,22.99
2022-08-27T02:15:43.090Z,22.78
2022-08-27T02:18:11.008Z,23.03
2022-08-27T02:20:38.515Z,22.70
2022-08-27T02:23:06.322Z,22.78
2022-08-27T02:25:34.402Z,22.77
2022-08-27T02:28:01.983Z,23.19
2022-08-27T02:30:30.224Z,23.00
2022-08-27T02:33:00.900Z,23.12
2022-08-27T02:35:29.385Z,22.99
2022-08-27T02:37:57.023Z,22.80
2022-08-27T02:40:25.065Z,22.94
2022-08-27T02:42:52.527Z,22.73
2022-08-27T02:45:20.448Z,22.94
2022-08-27T02:47:48.541Z,22.99
2022-08-27T02:50:16.048Z,23.12
2022-08-27T02:52:45.929Z,22.94
2022-08-27T02:55:14.564Z,22.80
2022-08-27T02:57:45.172Z,22.74
2022-08-27T03:00:14.424Z,22.41
2022-08-27T03:02:42.174Z,22.81
2022-08-27T03:05:10.128Z,22.93
2022-08-27T03:07:37.527Z,22.53
2022-08-27T03:10:05.554Z,22.77
2022-08-27T03:12:34.315Z,22.98
2022-08-27T03:15:05.456Z,22.64
2022-08-27T03:17:51.682Z,22.94
2022-08-27T03:20:19.112Z,22.88
2022-08-27T03:22:46.807Z,22.86
2022-08-27T03:25:14.264Z,22.82
2022-08-27T03:27:41.691Z,22.39
2022-08-27T03:30:12.754Z,22.26
2022-08-27T03:32:40.157Z,22.73
2022-08-27T03:35:07.938Z,22.58
2022-08-27T03:37:35.605Z,22.55
2022-08-27T03:40:04.040Z,22.86
2022-08-27T03:42:31.502Z,22.37
2022-08-27T03:44:59.182Z,22.83
2022-08-27T03:47:26.687Z,22.73
2022-08-27T03:49:54.100Z,22.26
2022-08-27T03:52:21.816Z,22.18
2022-08-27T03:54:49.251Z,22.43
2022-08-27T03:57:16.632Z,22.59
2022-08-27T03:59:44.379Z,22.30
2022-08-27T04:02:12.182Z,22.78
2022-08-27T04:04:42.616Z,22.60
2022-08-27T04:07:10.580Z,22.62
2022-08-27T04:09:38.016Z,22.49
2022-08-27T04:12:05.873Z,22.51
2022-08-27T04:14:33.931Z,22.93
2022-08-27T04:17:01.342Z,22.84
2022-08-27T04:19:30.886Z,22.86
2022-08-27T04:22:00.332Z,22.89
2022-08-27T04:24:28.644Z,23.06
2022-08-27T04:26:56.371Z,22.74
2022-08-27T04:29:24.142Z,22.78
2022-08-27T04:31:51.546Z,22.77
2022-08-27T04:34:19.232Z,22.88
2022-08-27T04:36:46.624Z,23.03
2022-08-27T04:39:14.266Z,22.90
2022-08-27T04:41:42.351Z,22.78
2022-08-27T04:44:10.250Z,23.12
2022-08-27T04:46:39.144Z,23.01
2022-08-27T04:49:10.279Z,23.01
2022-08-27T04:51:39.976Z,22.86
2022-08-27T04:54:08.195Z,22.67
2022-08-27T04:56:36.219Z,23.18
2022-08-27T04:59:08.098Z,23.39
2022-08-27T05:01:36.279Z,23.39
2022-08-27T05:04:04.049Z,23.26
2022-08-27T05:06:31.471Z,23.19
2022-08-27T05:08:59.154Z,23.25
2022-08-27T05:11:27.875Z,23.47
2022-08-27T05:13:55.255Z,23.65
2022-08-27T05:16:23.128Z,23.76
2022-08-27T05:18:51.067Z,23.91
2022-08-27T05:21:20.459Z,23.97
2022-08-27T05:23:48.237Z,24.23
2022-08-27T05:26:15.669Z,24.15
2022-08-27T05:28:43.100Z,24.35
2022-08-27T05:31:11.951Z,24.55
2022-08-27T05:33:39.551Z,24.59
2022-08-27T05:36:07.351Z,24.60
2022-08-27T05:38:35.140Z,24.84
2022-08-27T05:41:06.351Z,25.10
2022-08-27T05:43:34.048Z,25.36
2022-08-27T05:46:05.267Z,25.40
2022-08-27T05:48:33.051Z,25.20
2022-08-27T05:51:10.616Z,25.46
2022-08-27T05:53:38.972Z,25.67
2022-08-27T05:56:13.266Z,25.79
2022-08-27T05:58:59.506Z,25.96
2022-08-27T06:01:27.032Z,26.11
2022-08-27T06:03:55.136Z,26.21
2022-08-27T06:06:25.512Z,26.46
2022-08-27T06:08:53.493Z,26.47
2022-08-27T06:11:21.303Z,26.42
2022-08-27T06:13:48.709Z,26.77
2022-08-27T06:16:17.466Z,27.11
2022-08-27T06:18:45.935Z,27.16
2022-08-27T06:21:13.575Z,27.23
2022-08-27T06:23:41.093Z,27.36
2022-08-27T06:26:10.234Z,27.47
2022-08-27T06:28:39.014Z,27.67
2022-08-27T06:31:13.196Z,27.67
2022-08-27T06:33:41.428Z,27.03
2022-08-27T06:36:10.550Z,27.45
2022-08-27T06:38:38.027Z,27.82
2022-08-27T06:41:16.526Z,28.09
2022-08-27T06:43:50.943Z,28.25
2022-08-27T06:46:20.211Z,28.38
2022-08-27T06:48:48.429Z,28.42
2022-08-27T06:51:27.493Z,28.61
2022-08-27T06:53:55.835Z,28.83
2022-08-27T06:56:23.336Z,28.69
2022-08-27T06:58:55.378Z,28.87
2022-08-27T07:01:28.207Z,29.01
2022-08-27T07:03:58.836Z,28.66
2022-08-27T07:06:27.243Z,28.32
2022-08-27T07:08:54.669Z,28.98
2022-08-27T07:11:22.179Z,28.95
2022-08-27T07:13:49.846Z,29.40
2022-08-27T07:16:20.028Z,29.19
2022-08-27T07:18:51.045Z,29.56
2022-08-27T07:21:21.751Z,28.95
2022-08-27T07:23:50.242Z,29.53
2022-08-27T07:26:19.385Z,29.84
2022-08-27T07:28:46.787Z,30.15
2022-08-27T07:31:17.088Z,30.36
2022-08-27T07:33:52.195Z,30.46
2022-08-27T07:36:21.114Z,30.66
2022-08-27T07:38:57.026Z,29.53
2022-08-27T07:41:30.723Z,30.10
2022-08-27T07:44:18.767Z,30.42
2022-08-27T07:46:48.443Z,30.57
2022-08-27T07:49:17.694Z,30.57
2022-08-27T07:51:45.206Z,30.84
2022-08-27T07:54:12.601Z,30.35
2022-08-27T07:56:40.388Z,30.45
2022-08-27T07:59:08.278Z,30.53
2022-08-27T08:01:35.788Z,30.67
2022-08-27T08:04:03.686Z,30.40
2022-08-27T08:06:31.330Z,30.99
2022-08-27T08:08:59.487Z,30.16
2022-08-27T08:11:27.176Z,30.15
2022-08-27T08:13:54.590Z,30.28
2022-08-27T08:16:27.206Z,31.00
2022-08-27T08:18:57.396Z,30.83
2022-08-27T08:21:24.787Z,31.03
2022-08-27T08:23:52.441Z,31.21
2022-08-27T08:26:20.249Z,31.03
2022-08-27T08:28:47.818Z,30.96
2022-08-27T08:31:15.346Z,30.85
2022-08-27T08:33:43.103Z,31.31
2022-08-27T08:36:12.825Z,31.24
2022-08-27T08:38:40.398Z,31.85
2022-08-27T08:41:32.070Z,32.48
2022-08-27T08:44:04.772Z,33.68
2022-08-27T08:46:39.825Z,34.97
2022-08-27T08:49:22.055Z,35.91
2022-08-27T08:51:51.971Z,38.10
2022-08-27T08:54:20.851Z,40.11
2022-08-27T08:57:00.394Z,42.08
2022-08-27T08:59:35.226Z,43.23
2022-08-27T09:02:02.667Z,44.57
2022-08-27T09:04:30.414Z,45.22
2022-08-27T09:07:19.370Z,46.19
2022-08-27T09:09:48.084Z,45.89
2022-08-27T09:12:19.315Z,46.94
2022-08-27T09:14:47.473Z,47.07
2022-08-27T09:17:14.902Z,46.77
2022-08-27T09:19:43.031Z,47.88
2022-08-27T09:22:13.247Z,45.44
2022-08-27T09:24:49.739Z,47.04
2022-08-27T09:27:17.499Z,48.09
2022-08-27T09:29:53.039Z,48.52
2022-08-27T09:32:25.978Z,49.72
2022-08-27T09:34:58.242Z,49.25
2022-08-27T09:37:34.707Z,47.79
2022-08-27T09:40:32.725Z,46.64
2022-08-27T09:43:15.885Z,46.67
2022-08-27T09:45:51.712Z,47.18
2022-08-27T09:48:21.421Z,46.88
2022-08-27T09:51:00.155Z,45.30
2022-08-27T09:53:33.926Z,44.77
2022-08-27T09:56:09.107Z,44.33
2022-08-27T09:58:43.011Z,41.91
2022-08-27T10:01:31.788Z,42.98
2022-08-27T10:04:27.540Z,43.12
2022-08-27T10:06:54.988Z,43.39
2022-08-27T10:09:26.828Z,44.21
2022-08-27T10:12:15.365Z,45.12
2022-08-27T10:14:45.316Z,46.01
2022-08-27T10:17:24.846Z,46.89
2022-08-27T10:20:21.627Z,45.08
2022-08-27T10:23:23.355Z,47.07
2022-08-27T10:25:59.048Z,47.72
2022-08-27T10:28:36.809Z,47.74
2022-08-27T10:31:13.656Z,48.68
2022-08-27T10:33:57.029Z,46.63
2022-08-27T10:36:48.795Z,44.62
2022-08-27T10:39:38.522Z,41.41
2022-08-27T10:42:40.323Z,39.59
2022-08-27T10:45:50.230Z,39.46
2022-08-27T10:48:24.576Z,38.02
2022-08-27T10:50:56.307Z,37.19
2022-08-27T10:53:27.498Z,35.92
2022-08-27T10:56:10.530Z,32.91
2022-08-27T10:58:54.187Z,33.72
2022-08-27T11:01:34.699Z,34.31
2022-08-27T11:04:06.856Z,34.71
2022-08-27T11:06:39.835Z,34.32
2022-08-27T11:09:13.403Z,33.38
2022-08-27T11:14:43.244Z,33.63
2022-08-27T11:17:20.526Z,33.71
2022-08-27T11:20:12.490Z,33.80
2022-08-27T11:22:47.947Z,33.59
2022-08-27T11:25:27.864Z,33.93
2022-08-27T11:27:55.383Z,33.74
2022-08-27T11:30:34.493Z,32.58
2022-08-27T11:33:07.226Z,32.02
2022-08-27T11:36:13.343Z,32.78
2022-08-27T11:38:50.543Z,33.13
2022-08-27T11:41:46.683Z,33.01
2022-08-27T11:44:14.607Z,33.14
2022-08-27T11:46:54.392Z,32.63
2022-08-27T11:49:41.456Z,32.33
2022-08-27T11:52:09.185Z,32.71
2022-08-27T11:54:48.371Z,33.17
2022-08-27T11:57:26.560Z,33.01
2022-08-27T11:59:53.976Z,33.05
2022-08-27T12:02:26.915Z,33.00
2022-08-27T12:05:05.832Z,33.04
2022-08-27T12:07:34.802Z,32.45
2022-08-27T12:10:12.768Z,32.87
2022-08-27T12:12:52.398Z,33.14
2022-08-27T12:15:31.236Z,33.28
2022-08-27T12:18:43.331Z,33.39
2022-08-27T12:21:22.271Z,33.37
2022-08-27T12:24:21.027Z,33.37
2022-08-27T12:27:13.099Z,33.37
2022-08-27T12:29:44.073Z,32.98
2022-08-27T12:32:33.954Z,33.33
2022-08-27T12:35:26.928Z,33.39
2022-08-27T12:38:17.675Z,33.50
2022-08-27T12:40:54.055Z,33.49
2022-08-27T12:43:26.408Z,32.80
2022-08-27T12:46:04.613Z,33.01
2022-08-27T12:48:40.079Z,33.34
2022-08-27T12:51:31.283Z,33.39
2022-08-27T12:54:05.761Z,33.47
2022-08-27T12:56:52.590Z,33.57
2022-08-27T12:59:27.099Z,33.50
2022-08-27T13:02:01.748Z,33.34
2022-08-27T13:04:31.031Z,33.40
2022-08-27T13:06:58.472Z,33.32
2022-08-27T13:09:33.752Z,33.67
2022-08-27T13:12:02.007Z,33.70
2022-08-27T13:14:38.547Z,33.62
2022-08-27T13:17:12.071Z,33.56
2022-08-27T13:19:50.891Z,33.45
2022-08-27T13:22:32.430Z,33.52
2022-08-27T13:25:00.060Z,32.84
2022-08-27T13:27:32.721Z,33.36
2022-08-27T13:30:06.976Z,33.54
2022-08-27T13:32:34.703Z,33.50
2022-08-27T13:35:02.108Z,33.71
2022-08-27T13:37:35.219Z,33.27
2022-08-27T13:40:03.252Z,33.45
2022-08-27T13:42:31.637Z,33.56
2022-08-27T13:45:04.446Z,33.49
2022-08-27T13:47:32.102Z,33.67
2022-08-27T13:50:07.937Z,33.63
2022-08-27T13:52:56.767Z,33.35
2022-08-27T13:55:24.266Z,33.60
2022-08-27T13:57:52.038Z,33.44
2022-08-27T14:00:31.560Z,33.54
2022-08-27T14:03:00.971Z,33.26
2022-08-27T14:05:31.104Z,33.23
2022-08-27T14:08:00.569Z,33.45
2022-08-27T14:10:39.418Z,33.46
2022-08-27T14:13:12.687Z,33.67
2022-08-27T14:15:42.639Z,33.49
2022-08-27T14:18:58.226Z,33.45
2022-08-27T14:21:23.012Z,33.33
2022-08-27T14:23:50.805Z,33.54
2022-08-27T14:26:18.247Z,33.55
2022-08-27T14:28:46.046Z,33.53
2022-08-27T14:31:13.936Z,33.03
2022-08-27T14:33:41.503Z,33.16
2022-08-27T14:36:09.023Z,33.15
2022-08-27T14:38:38.194Z,33.41
2022-08-27T14:41:08.571Z,33.49
2022-08-27T14:43:36.353Z,33.08
2022-08-27T14:46:04.240Z,33.34
2022-08-27T14:48:33.218Z,33.32
2022-08-27T14:51:02.511Z,33.35
2022-08-27T14:53:30.192Z,33.30
2022-08-27T14:55:59.372Z,33.34
2022-08-27T14:58:26.979Z,33.12
2022-08-27T15:00:56.430Z,33.32
2022-08-27T15:03:26.718Z,33.31
2022-08-27T15:05:54.973Z,33.11
2022-08-27T15:08:27.658Z,33.21
2022-08-27T15:10:57.986Z,33.13
2022-08-27T15:13:25.722Z,33.20
2022-08-27T15:15:53.180Z,33.18
2022-08-27T15:18:20.688Z,33.23
2022-08-27T15:20:48.578Z,33.22
2022-08-27T15:23:15.992Z,33.06
2022-08-27T15:25:44.671Z,33.21
2022-08-27T15:28:12.605Z,32.78
2022-08-27T15:30:40.226Z,32.75
2022-08-27T15:33:07.718Z,32.96
2022-08-27T15:35:35.412Z,32.31
2022-08-27T15:38:02.945Z,32.41
2022-08-27T15:40:32.088Z,32.17
2022-08-27T15:43:02.317Z,32.26
2022-08-27T15:45:31.182Z,32.62
2022-08-27T15:47:59.305Z,32.56
2022-08-27T15:50:27.546Z,32.57
2022-08-27T15:52:58.251Z,32.59
2022-08-27T15:55:28.106Z,32.45
2022-08-27T15:57:55.790Z,32.37
2022-08-27T16:00:24.292Z,32.35
2022-08-27T16:02:52.142Z,32.24
2022-08-27T16:05:19.868Z,32.14
2022-08-27T16:07:47.338Z,32.07
2022-08-27T16:10:15.185Z,32.07
2022-08-27T16:12:42.567Z,31.95
2022-08-27T16:15:10.244Z,31.94
2022-08-27T16:17:37.962Z,31.86
2022-08-27T16:20:06.136Z,31.69
2022-08-27T16:22:34.828Z,31.64
2022-08-27T16:25:02.842Z,31.50
2022-08-27T16:27:30.390Z,31.50
2022-08-27T16:29:57.841Z,31.45
2022-08-27T16:32:25.902Z,31.34
2022-08-27T16:34:55.719Z,31.30
2022-08-27T16:37:26.547Z,31.28
2022-08-27T16:39:54.230Z,31.23
2022-08-27T16:42:21.930Z,31.11
2022-08-27T16:44:49.377Z,31.04
2022-08-27T16:47:17.086Z,30.88
2022-08-27T16:50:03.186Z,30.81
2022-08-27T16:52:30.842Z,30.80
2022-08-27T16:55:00.038Z,30.68
2022-08-27T16:57:27.454Z,30.51
2022-08-27T16:59:55.842Z,30.40
2022-08-27T17:02:30.338Z,30.31
2022-08-27T17:05:12.394Z,30.22
2022-08-27T17:07:49.304Z,30.24
2022-08-27T17:10:18.403Z,30.10
2022-08-27T17:12:46.981Z,29.94
2022-08-27T17:15:17.432Z,29.87
2022-08-27T17:17:45.253Z,29.76
2022-08-27T17:20:15.005Z,29.54
2022-08-27T17:22:43.336Z,29.84
2022-08-27T17:25:11.023Z,29.07
2022-08-27T17:27:38.398Z,29.30
2022-08-27T17:30:06.707Z,29.18
2022-08-27T17:32:37.173Z,29.41
2022-08-27T17:35:06.590Z,29.24
2022-08-27T17:37:34.458Z,29.08
2022-08-27T17:40:02.291Z,28.94
2022-08-27T17:42:31.057Z,29.12
2022-08-27T17:44:58.568Z,29.04
2022-08-27T17:47:26.889Z,28.80
2022-08-27T17:49:54.250Z,28.88
2022-08-27T17:52:22.367Z,28.90
2022-08-27T17:54:51.797Z,28.92
2022-08-27T17:57:23.922Z,28.74
2022-08-27T17:59:52.171Z,28.56
2022-08-27T18:02:22.405Z,28.58
2022-08-27T18:04:50.326Z,28.61
2022-08-27T18:07:18.882Z,28.61
2022-08-27T18:09:48.076Z,28.46
2022-08-27T18:12:17.992Z,28.44
2022-08-27T18:14:45.935Z,28.50
2022-08-27T18:17:13.673Z,28.30
2022-08-27T18:19:45.467Z,28.19
2022-08-27T18:22:13.240Z,28.18
2022-08-27T18:24:40.728Z,28.28
2022-08-27T18:27:08.378Z,28.20
2022-08-27T18:29:35.716Z,28.25
2022-08-27T18:32:04.999Z,28.09
2022-08-27T18:34:32.646Z,28.07
2022-08-27T18:37:00.007Z,28.10
2022-08-27T18:39:28.194Z,28.06
2022-08-27T18:41:55.824Z,27.79
2022-08-27T18:44:23.318Z,27.72
2022-08-27T18:46:51.638Z,27.81
2022-08-27T18:49:19.587Z,27.85
2022-08-27T18:51:50.657Z,27.96
2022-08-27T18:54:21.164Z,27.88
2022-08-27T18:56:48.665Z,27.76
2022-08-27T18:59:16.216Z,27.61
2022-08-27T19:01:43.971Z,27.78
2022-08-27T19:04:11.469Z,27.78
2022-08-27T19:06:38.910Z,27.75
2022-08-27T19:09:06.876Z,27.68
2022-08-27T19:11:34.233Z,27.71
2022-08-27T19:14:01.597Z,27.57
2022-08-27T19:16:46.520Z,27.58
2022-08-27T19:19:14.823Z,27.65
2022-08-27T19:21:42.617Z,27.60
2022-08-27T19:24:10.123Z,27.48
2022-08-27T19:26:37.486Z,27.40
2022-08-27T19:29:05.265Z,27.51
2022-08-27T19:31:34.667Z,27.62
2022-08-27T19:34:08.656Z,27.42
2022-08-27T19:36:39.059Z,27.34
2022-08-27T19:39:06.714Z,27.48
2022-08-27T19:41:34.119Z,27.40
2022-08-27T19:44:02.950Z,27.42
2022-08-27T19:46:32.820Z,27.39
2022-08-27T19:49:00.179Z,27.42
2022-08-27T19:51:27.865Z,27.46
2022-08-27T19:53:55.246Z,27.46
2022-08-27T19:56:22.588Z,27.42
2022-08-27T19:58:53.011Z,27.32
2022-08-27T20:01:24.074Z,27.37
2022-08-27T20:03:51.775Z,27.24
2022-08-27T20:06:19.662Z,27.28
2022-08-27T20:08:50.565Z,27.22
2022-08-27T20:11:22.020Z,27.22
2022-08-27T20:13:50.817Z,27.10
2022-08-27T20:16:19.070Z,27.13
2022-08-27T20:18:46.530Z,27.27
2022-08-27T20:21:13.963Z,27.11
2022-08-27T20:23:41.642Z,26.84
2022-08-27T20:26:09.338Z,26.88
2022-08-27T20:28:39.766Z,26.76
2022-08-27T20:31:08.300Z,26.86
2022-08-27T20:33:35.678Z,26.89
2022-08-27T20:36:03.414Z,26.84
2022-08-27T20:38:31.033Z,26.69
2022-08-27T20:40:58.382Z,26.69
2022-08-27T20:43:25.770Z,26.88
2022-08-27T20:45:53.460Z,26.59
2022-08-27T20:48:20.886Z,26.43
2022-08-27T20:50:48.253Z,26.42
2022-08-27T20:53:15.964Z,26.24
2022-08-27T20:55:43.348Z,26.34
2022-08-27T20:58:29.442Z,26.64
2022-08-27T21:00:57.160Z,26.21
2022-08-27T21:03:24.754Z,25.97
2022-08-27T21:05:52.552Z,26.01
2022-08-27T21:08:20.313Z,26.07
2022-08-27T21:10:56.767Z,26.10
2022-08-27T21:13:25.159Z,26.20
2022-08-27T21:15:56.402Z,26.26
2022-08-27T21:18:29.716Z,26.24
2022-08-27T21:21:01.240Z,26.17
2022-08-27T21:23:29.116Z,25.96
2022-08-27T21:26:01.288Z,26.16
2022-08-27T21:28:29.063Z,26.16
2022-08-27T21:30:56.485Z,26.26
2022-08-27T21:33:23.935Z,26.35
2022-08-27T21:35:51.726Z,26.45
2022-08-27T21:38:19.100Z,26.24
2022-08-27T21:40:46.677Z,26.08
2022-08-27T21:43:14.292Z,26.13
2022-08-27T21:45:42.958Z,26.31
2022-08-27T21:48:10.511Z,26.21
2022-08-27T21:50:38.354Z,26.35
2022-08-27T21:53:05.799Z,26.25
2022-08-27T21:55:33.697Z,26.13
2022-08-27T21:58:01.330Z,26.52
2022-08-27T22:00:28.914Z,26.18
2022-08-27T22:02:57.025Z,26.16
2022-08-27T22:05:24.638Z,26.36
2022-08-27T22:07:52.019Z,26.16
2022-08-27T22:10:19.946Z,26.08
2022-08-27T22:12:47.324Z,26.07
2022-08-27T22:15:14.824Z,26.03
2022-08-27T22:17:42.477Z,26.05
2022-08-27T22:20:10.284Z,26.05
2022-08-27T22:22:37.739Z,26.06
2022-08-27T22:25:06.111Z,26.15
2022-08-27T22:27:33.551Z,26.19
2022-08-27T22:30:00.917Z,26.21
2022-08-27T22:32:28.568Z,26.26
2022-08-27T22:34:55.919Z,26.16
2022-08-27T22:37:23.316Z,26.19
2022-08-27T22:39:51.134Z,26.15
2022-08-27T22:42:19.528Z,26.13
2022-08-27T22:44:47.567Z,25.98
2022-08-27T22:47:15.168Z,25.96
2022-08-27T22:49:43.170Z,26.07
2022-08-27T22:52:10.554Z,25.85
2022-08-27T22:54:38.195Z,25.85
2022-08-27T22:57:05.622Z,25.81
2022-08-27T22:59:38.849Z,25.76
2022-08-27T23:02:08.405Z,25.92
2022-08-27T23:04:53.973Z,25.97
2022-08-27T23:07:23.610Z,25.97
2022-08-27T23:09:50.991Z,25.92
2022-08-27T23:12:19.790Z,25.93
2022-08-27T23:14:47.495Z,25.87
2022-08-27T23:17:16.017Z,25.91
2022-08-27T23:19:43.459Z,25.91
2022-08-27T23:22:11.169Z,26.07
2022-08-27T23:24:58.495Z,25.90
2022-08-27T23:27:29.119Z,25.86
2022-08-27T23:29:57.452Z,25.81
2022-08-27T23:32:24.825Z,25.96
2022-08-27T23:34:52.653Z,24.46
2022-08-27T23:37:20.001Z,24.63
2022-08-27T23:39:47.467Z,25.29
2022-08-27T23:42:18.436Z,24.84
2022-08-27T23:44:46.361Z,24.48
2022-08-27T23:47:13.789Z,24.58
2022-08-27T23:49:43.285Z,25.04
2022-08-27T23:52:11.037Z,24.81
2022-08-27T23:54:38.509Z,24.30
2022-08-27T23:57:06.217Z,24.79
2022-08-27T23:59:33.553Z,24.98
